臺北飛航情報區 - 掃描席(區管/近場)

METAR RCTP 201900Z 23014KT 9999 FEW007 BKN012 BKN025 25/23 Q1011 NOSIG RMK A2986(G)=

站台狀態:Online
最後更新:2019-03-21 03:00:02